NCAR-RAP Real-Time Weather Data

Output produced by METARs form (12 August 2020  18:43 UTC)
found at http://weather.rap.ucar.edu/surface/
 
KCYS 121753Z 21011KT 10SM CLR 26/10 A3013 RMK AO2 SLP105 T02610100 10261 20156 58012
KCYS 121653Z 20012KT 10SM CLR 22/13 A3015 RMK AO2 SLP117 T02220128
KCYS 121553Z 19015G23KT 10SM FEW016 19/13 A3016 RMK AO2 SLP119 T01940128
KCYS 121511Z 19012G21KT 10SM SCT014 19/13 A3016 RMK AO2 T01890128
KCYS 121453Z 19015G22KT 10SM BKN014 18/13 A3017 RMK AO2 SLP130 T01780128 50004
KCYS 121442Z 19013KT 10SM SCT010 OVC014 17/13 A3017 RMK AO2 T01720133
KCYS 121353Z 18015G21KT 10SM OVC005 17/13 A3018 RMK AO2 CIG 005V008 SLP130 T01670133
KCYS 121253Z 17012G25KT 10SM OVC005 16/13 A3018 RMK AO2 SLP129 T01560133
KCYS 121153Z AUTO 17013G21KT 10SM OVC005 16/13 A3016 RMK AO2 SLP115 T01560133 10206 20122 53013 TSNO
KCYS 121137Z AUTO 17012G20KT 10SM BKN006 15/13 A3014 RMK AO2 T01500128 TSNO
KCYS 121128Z AUTO 16012KT 10SM SCT007 15/12 A3014 RMK AO2 T01500122 TSNO
KCYS 121053Z AUTO 16007KT 10SM CLR 13/08 A3013 RMK AO2 SLP110 T01330083 TSNO
KCYS 120953Z AUTO 22004KT 10SM CLR 13/07 A3011 RMK AO2 SLP102 T01330072 TSNO
KCYS 120853Z AUTO 21003KT 10SM CLR 16/08 A3011 RMK AO2 SLP103 T01610078 58005
KCYS 120753Z AUTO 20004KT 10SM CLR 17/08 A3012 RMK AO2 SLP104 T01670078
KCYS 120653Z AUTO 19005KT 10SM CLR 18/08 A3014 RMK AO2 SLP109 T01830078 403220139
KCYS 120553Z AUTO 18016G26KT 10SM CLR 21/08 A3013 RMK AO2 PK WND 19027/0534 SLP100 T02060078 10311 20206 51016
KCYS 120453Z AUTO 19007KT 10SM CLR 22/03 A3011 RMK AO2 SLP087 T02170033
KCYS 120353Z AUTO 33009KT 10SM CLR 24/M02 A3010 RMK AO2 SLP088 T02441022
KCYS 120253Z 27008KT 10SM CLR 23/M02 A3007 RMK AO2 SLP086 T02331017 53008
KCYS 120153Z 21009KT 10SM CLR 27/M03 A3005 RMK AO2 SLP076 T02671028
KCYS 120053Z 22005KT 10SM CLR 28/M03 A3003 RMK AO2 SLP078 T02831033
KCYS 112353Z 22006G18KT 10SM CLR 31/M04 A3004 RMK AO2 PK WND 25026/2305 SLP078 60000 T03061039 10317 20267 56015
KCYS 112253Z 24014G24KT 10SM CLR 30/M03 A3006 RMK AO2 SLP085 T03001033
KCYS 112153Z 11004KT 10SM CLR 31/M02 A3007 RMK AO2 RAB01E04 SLP083 P0000 T03061022
KCYS 112053Z 10008KT 10SM SCT110 28/M01 A3010 RMK AO2 SLP099 T02781006 53003
KCYS 111953Z VRB03KT 10SM CLR 28/M03 A3009 RMK AO2 PK WND 20029/1900 LTG DSNT E SLP093 T02831028
KCYS 111911Z 23013G26KT 10SM CLR 30/M06 A3008 RMK AO2 PK WND 20029/1900 LTG DSNT E AND SE T03001056
KCYS 111853Z 20012G26KT 10SM VCTS CLR 29/M02 A3007 RMK AO2 PK WND 22028/1853 SLP083 T02891017
KCYS 111753Z 33005KT 10SM CLR 29/M02 A3009 RMK AO2 SLP088 T02891022 10322 20139 58007
KCYS 111653Z 10SM CLR 32/M04 A3010 RMK AO2 SLP083 T03221039
KCYS 111553Z 28004KT 10SM CLR 28/02 A3011 RMK AO2 SLP094 T02780022
KCYS 111453Z 28008KT 10SM CLR 23/02 A3011 RMK AO2 SLP100 T02330022 53002
KCYS 111353Z 29009KT 10SM CLR 19/03 A3010 RMK AO2 SLP103 T01940028
KCYS 111253Z 26010KT 10SM CLR 15/08 A3011 RMK AO2 SLP107 T01500083
KCYS 111153Z 26004KT 10SM CLR 14/10 A3010 RMK AO2 SLP105 T01440100 10200 20139 56009
KCYS 111053Z AUTO 28010KT 10SM CLR 14/11 A3012 RMK AO2 SLP107 T01440106
KCYS 110953Z AUTO 20005KT 10SM CLR 16/12 A3012 RMK AO2 SLP111 T01560122
KCYS 110853Z AUTO 21006KT 10SM CLR 16/12 A3014 RMK AO2 SLP117 T01610117 58004
KCYS 110753Z AUTO 27005KT 10SM CLR 17/12 A3015 RMK AO2 SLP118 T01670117
KCYS 110653Z AUTO 17010KT 10SM CLR 19/12 A3016 RMK AO2 SLP119 T01890122 402890122
KCYS 110553Z AUTO 16008KT 10SM CLR 19/09 A3015 RMK AO2 SLP118 T01940094 10272 20189 51002
KCYS 110453Z AUTO 19010KT 10SM CLR 21/08 A3015 RMK AO2 SLP119 T02110083
KCYS 110353Z 20008KT 10SM FEW110 22/09 A3015 RMK AO2 PK WND 19029/0310 SLP121 T02220089
KCYS 110253Z 20014KT 10SM FEW120 23/09 A3015 RMK AO2 SLP121 T02330094 56000
KCYS 110153Z 20012KT 10SM FEW110 24/08 A3015 RMK AO2 SLP126 T02390083
KCYS 110053Z 15014G20KT 10SM CLR 27/07 A3014 RMK AO2 SLP120 T02670067
KCYS 102353Z 18010KT 10SM CLR 27/06 A3015 RMK AO2 RAE2259 SLP124 P0000 60000 T02720061 10289 20239 56010
KCYS 102253Z 15012KT 10SM -RA FEW110 28/06 A3015 RMK AO2 RAB49 SLP122 P0000 T02830061
KCYS 102153Z 13009KT 10SM CLR 26/06 A3017 RMK AO2 LTG DSNT W SLP132 T02610061
KCYS 102053Z 13011G17KT 10SM CLR 26/07 A3018 RMK AO2 SLP133 T02610067 56012
KCYS 101953Z VRB06G16KT 10SM CLR 27/07 A3019 RMK AO2 SLP132 T02720072
KCYS 101853Z VRB03G17KT 10SM CLR 26/08 A3021 RMK AO2 SLP138 T02560078